Terminal Aerodrome Forecast
Issued by NWS

Home | Current Version | Previous Version | Text Only | Print | Product List | Glossary On
Versions: 1 2 3 4 5 6 7 8 9 10 11 12 13 14 15 16 17 18 19
000
FTUS46 KMTR 311735
TAFSTS
TAF
KSTS 311735Z 3118/0118 VRB03KT P6SM SKC
     FM312000 19008KT P6SM SKC
     FM010200 16008KT P6SM SKC
     FM010500 VRB03KT P6SM SKC=

USA.gov is the U.S. government's official web portal to all federal, state and local government web resources and services.